createdAt,value
2023-02-05T00:01:28.122Z,97.18
2023-02-05T00:03:54.782Z,99.07
2023-02-05T00:06:21.487Z,94.95
2023-02-05T00:08:48.287Z,96.57
2023-02-05T00:11:14.963Z,97.22
2023-02-05T00:13:42.713Z,101.88
2023-02-05T00:16:11.023Z,93.18
2023-02-05T00:18:37.777Z,96.93
2023-02-05T00:21:05.779Z,96.10
2023-02-05T00:23:32.984Z,99.40
2023-02-05T00:25:59.758Z,102.75
2023-02-05T00:28:26.652Z,97.05
2023-02-05T00:30:53.387Z,99.68
2023-02-05T00:33:21.857Z,106.63
2023-02-05T00:35:48.485Z,98.75
2023-02-05T00:38:15.136Z,97.68
2023-02-05T00:40:41.756Z,94.57
2023-02-05T00:43:08.397Z,96.28
2023-02-05T00:45:35.834Z,94.78
2023-02-05T00:48:04.116Z,93.68
2023-02-05T00:50:31.187Z,95.00
2023-02-05T00:52:57.906Z,95.90
2023-02-05T00:55:24.790Z,96.28
2023-02-05T00:57:51.457Z,97.63
2023-02-05T01:00:18.733Z,98.55
2023-02-05T01:02:45.590Z,93.32
2023-02-05T01:05:12.488Z,100.13
2023-02-05T01:07:39.163Z,96.93
2023-02-05T01:10:06.762Z,93.97
2023-02-05T01:12:33.435Z,92.20
2023-02-05T01:15:06.290Z,94.45
2023-02-05T01:17:33.332Z,95.38
2023-02-05T01:19:59.941Z,95.55
2023-02-05T01:22:26.917Z,109.07
2023-02-05T01:24:53.608Z,95.47
2023-02-05T01:27:20.288Z,95.63
2023-02-05T01:29:46.978Z,96.63
2023-02-05T01:32:13.612Z,98.15
2023-02-05T01:34:40.222Z,97.85
2023-02-05T01:37:06.863Z,97.70
2023-02-05T01:39:33.496Z,99.47
2023-02-05T01:42:00.129Z,95.97
2023-02-05T01:44:26.825Z,98.55
2023-02-05T01:46:55.455Z,93.13
2023-02-05T01:49:27.651Z,96.35
2023-02-05T01:51:56.068Z,96.93
2023-02-05T01:54:26.417Z,97.75
2023-02-05T01:57:03.227Z,95.93
2023-02-05T01:59:33.179Z,95.97
2023-02-05T02:02:01.339Z,98.18
2023-02-05T02:04:52.460Z,99.65
2023-02-05T02:07:22.746Z,94.45
2023-02-05T02:09:50.140Z,93.40
2023-02-05T02:12:22.854Z,99.72
2023-02-05T02:14:53.223Z,98.00
2023-02-05T02:17:21.849Z,97.63
2023-02-05T02:20:01.795Z,94.93
2023-02-05T02:22:57.636Z,102.28
2023-02-05T02:25:42.462Z,100.20
2023-02-05T02:28:40.727Z,102.35
2023-02-05T02:31:17.467Z,94.15
2023-02-05T02:34:05.040Z,100.88
2023-02-05T02:37:01.125Z,95.68
2023-02-05T02:39:39.007Z,92.70
2023-02-05T02:42:13.404Z,94.22
2023-02-05T02:44:53.695Z,94.28
2023-02-05T02:47:28.134Z,94.18
2023-02-05T02:50:06.155Z,94.55
2023-02-05T02:52:39.134Z,95.20
2023-02-05T02:55:09.808Z,93.32
2023-02-05T02:57:39.856Z,97.32
2023-02-05T03:00:13.325Z,95.50
2023-02-05T03:02:43.543Z,94.68
2023-02-05T03:05:15.821Z,96.07
2023-02-05T03:07:51.994Z,95.30
2023-02-05T03:10:34.585Z,102.50
2023-02-05T03:13:01.320Z,93.93
2023-02-05T03:15:27.964Z,99.30
2023-02-05T03:17:55.529Z,94.93
2023-02-05T03:20:32.899Z,95.47
2023-02-05T03:22:59.613Z,94.03
2023-02-05T03:25:29.201Z,97.72
2023-02-05T03:27:56.866Z,103.95
2023-02-05T03:30:28.199Z,97.15
2023-02-05T03:33:04.681Z,97.10
2023-02-05T03:35:46.371Z,96.15
2023-02-05T03:38:12.948Z,93.20
2023-02-05T03:40:57.971Z,94.22
2023-02-05T03:43:45.635Z,96.15
2023-02-05T03:46:17.833Z,94.13
2023-02-05T03:49:17.599Z,94.82
2023-02-05T03:52:14.930Z,96.25
2023-02-05T03:54:51.006Z,93.95
2023-02-05T03:57:48.729Z,96.75
2023-02-05T04:00:15.770Z,101.97
2023-02-05T04:02:43.215Z,95.13
2023-02-05T04:05:09.908Z,94.63
2023-02-05T04:07:36.539Z,96.70
2023-02-05T04:10:04.068Z,95.57
2023-02-05T04:12:30.701Z,96.43
2023-02-05T04:14:57.368Z,95.25
2023-02-05T04:17:23.958Z,98.20
2023-02-05T04:19:50.570Z,95.07
2023-02-05T04:22:17.176Z,94.47
2023-02-05T04:24:43.811Z,96.03
2023-02-05T04:27:10.453Z,98.43
2023-02-05T04:29:37.113Z,103.05
2023-02-05T04:32:03.823Z,104.53
2023-02-05T04:34:30.508Z,96.53
2023-02-05T04:36:57.226Z,103.55
2023-02-05T04:39:23.871Z,101.85
2023-02-05T04:41:50.501Z,97.30
2023-02-05T04:44:17.132Z,96.80
2023-02-05T04:46:43.744Z,95.38
2023-02-05T04:49:10.367Z,97.40
2023-02-05T04:51:36.987Z,96.75
2023-02-05T04:54:03.782Z,96.07
2023-02-05T04:56:30.428Z,94.55
2023-02-05T04:58:57.053Z,95.28
2023-02-05T05:01:23.992Z,97.93
2023-02-05T05:03:51.103Z,94.97
2023-02-05T05:06:18.913Z,94.45
2023-02-05T05:08:46.166Z,95.05
2023-02-05T05:11:16.084Z,100.82
2023-02-05T05:13:43.168Z,96.82
2023-02-05T05:16:10.900Z,96.75
2023-02-05T05:18:38.477Z,99.90
2023-02-05T05:21:05.796Z,95.35
2023-02-05T05:23:33.744Z,98.40
2023-02-05T05:26:07.462Z,100.43
2023-02-05T05:28:35.289Z,99.55
2023-02-05T05:31:16.774Z,97.80
2023-02-05T05:33:43.508Z,97.90
2023-02-05T05:36:10.174Z,101.32
2023-02-05T05:38:36.836Z,98.05
2023-02-05T05:41:22.894Z,97.43
2023-02-05T05:43:50.945Z,98.53
2023-02-05T05:46:36.519Z,97.90
2023-02-05T05:49:04.251Z,107.28
2023-02-05T05:51:32.586Z,105.75
2023-02-05T05:53:59.323Z,100.95
2023-02-05T05:56:26.008Z,96.25
2023-02-05T05:58:52.983Z,101.85
2023-02-05T06:01:22.182Z,100.00
2023-02-05T06:03:49.728Z,100.47
2023-02-05T06:06:16.488Z,97.40
2023-02-05T06:08:43.158Z,98.00
2023-02-05T06:11:09.892Z,96.53
2023-02-05T06:13:36.566Z,98.25
2023-02-05T06:16:04.002Z,99.88
2023-02-05T06:18:31.042Z,97.30
2023-02-05T06:20:57.846Z,97.57
2023-02-05T06:23:24.663Z,97.45
2023-02-05T06:25:51.361Z,98.22
2023-02-05T06:28:18.057Z,98.22
2023-02-05T06:30:44.746Z,103.13
2023-02-05T06:33:12.703Z,97.43
2023-02-05T06:35:40.704Z,97.15
2023-02-05T06:38:07.373Z,104.25
2023-02-05T06:40:34.207Z,103.10
2023-02-05T06:43:00.825Z,100.32
2023-02-05T06:45:27.452Z,102.35
2023-02-05T06:47:55.961Z,105.47
2023-02-05T06:50:23.259Z,102.07
2023-02-05T06:52:51.151Z,105.53
2023-02-05T06:55:18.264Z,105.13
2023-02-05T06:57:44.909Z,102.82
2023-02-05T07:00:12.615Z,101.15
2023-02-05T07:02:39.322Z,99.90
2023-02-05T07:05:06.303Z,100.38
2023-02-05T07:07:33.620Z,103.78
2023-02-05T07:10:00.841Z,108.40
2023-02-05T07:12:27.690Z,104.10
2023-02-05T07:14:54.345Z,104.65
2023-02-05T07:17:20.973Z,108.60
2023-02-05T07:19:47.651Z,102.38
2023-02-05T07:22:15.303Z,100.32
2023-02-05T07:24:41.966Z,102.07
2023-02-05T07:27:08.731Z,103.38
2023-02-05T07:29:35.359Z,105.40
2023-02-05T07:32:02.102Z,105.97
2023-02-05T07:34:28.784Z,101.65
2023-02-05T07:36:55.418Z,115.75
2023-02-05T07:39:22.061Z,105.60
2023-02-05T07:41:48.744Z,101.45
2023-02-05T07:44:15.347Z,101.68
2023-02-05T07:46:42.188Z,104.53
2023-02-05T07:49:08.890Z,98.35
2023-02-05T07:51:35.556Z,103.95
2023-02-05T07:54:09.558Z,101.72
2023-02-05T07:56:36.597Z,102.38
2023-02-05T07:59:03.316Z,103.13
2023-02-05T08:01:29.975Z,106.28
2023-02-05T08:03:56.653Z,99.43
2023-02-05T08:06:23.314Z,101.57
2023-02-05T08:08:50.116Z,98.95
2023-02-05T08:11:17.943Z,100.95
2023-02-05T08:13:45.522Z,99.60
2023-02-05T08:16:15.567Z,101.88
2023-02-05T08:18:43.099Z,103.05
2023-02-05T08:21:09.743Z,101.68
2023-02-05T08:23:36.536Z,102.47
2023-02-05T08:26:03.696Z,102.78
2023-02-05T08:28:30.553Z,101.57
2023-02-05T08:30:57.276Z,103.38
2023-02-05T08:33:24.642Z,100.05
2023-02-05T08:35:51.336Z,100.65
2023-02-05T08:38:18.465Z,104.40
2023-02-05T08:40:45.278Z,101.40
2023-02-05T08:43:12.147Z,111.55
2023-02-05T08:45:39.136Z,98.95
2023-02-05T08:48:05.930Z,104.47
2023-02-05T08:50:32.607Z,100.93
2023-02-05T08:52:59.247Z,97.88
2023-02-05T08:55:25.915Z,103.65
2023-02-05T08:57:52.967Z,104.72
2023-02-05T09:00:21.081Z,101.35
2023-02-05T09:02:48.321Z,100.57
2023-02-05T09:05:15.841Z,105.65
2023-02-05T09:07:42.576Z,102.47
2023-02-05T09:10:12.278Z,100.65
2023-02-05T09:12:39.226Z,107.05
2023-02-05T09:15:06.932Z,102.97
2023-02-05T09:17:33.589Z,97.82
2023-02-05T09:20:00.228Z,99.15
2023-02-05T09:22:26.936Z,105.68
2023-02-05T09:24:53.540Z,101.18
2023-02-05T09:27:20.906Z,104.68
2023-02-05T09:29:47.545Z,102.28
2023-02-05T09:32:14.333Z,100.22
2023-02-05T09:34:41.085Z,100.47
2023-02-05T09:37:07.725Z,97.32
2023-02-05T09:40:18.489Z,100.43
2023-02-05T09:42:49.716Z,104.43
2023-02-05T09:45:36.157Z,105.38
2023-02-05T09:48:22.569Z,101.93
2023-02-05T09:50:50.301Z,102.13
2023-02-05T09:53:19.796Z,100.53
2023-02-05T09:55:47.298Z,99.97
2023-02-05T09:58:21.335Z,105.28
2023-02-05T10:00:50.315Z,103.50
2023-02-05T10:03:26.905Z,103.47
2023-02-05T10:06:10.340Z,103.05
2023-02-05T10:08:50.062Z,100.68
2023-02-05T10:11:44.535Z,108.60
2023-02-05T10:14:25.069Z,102.15
2023-02-05T10:17:08.545Z,107.03
2023-02-05T10:19:58.965Z,102.03
2023-02-05T10:22:28.384Z,104.25
2023-02-05T10:25:32.912Z,98.00
2023-02-05T10:28:37.937Z,101.75
2023-02-05T10:31:41.767Z,102.60
2023-02-05T10:34:37.852Z,105.03
2023-02-05T10:37:11.918Z,102.30
2023-02-05T10:39:38.639Z,99.32
2023-02-05T10:42:07.311Z,103.63
2023-02-05T10:44:48.948Z,106.70
2023-02-05T10:47:43.078Z,108.97
2023-02-05T10:50:51.387Z,108.30
2023-02-05T10:53:24.665Z,102.75
2023-02-05T10:55:51.489Z,104.90
2023-02-05T10:58:41.368Z,104.45
2023-02-05T11:01:14.199Z,104.05
2023-02-05T11:03:48.145Z,103.53
2023-02-05T11:06:15.134Z,112.70
2023-02-05T11:08:44.163Z,103.55
2023-02-05T11:11:28.517Z,108.63
2023-02-05T11:14:01.681Z,103.40
2023-02-05T11:16:38.537Z,111.20
2023-02-05T11:19:18.358Z,107.65
2023-02-05T11:21:56.905Z,106.28
2023-02-05T11:24:32.850Z,110.15
2023-02-05T11:27:31.446Z,107.60
2023-02-05T11:30:17.814Z,108.30
2023-02-05T11:32:44.633Z,109.72
2023-02-05T11:35:19.290Z,112.90
2023-02-05T11:37:49.691Z,110.10
2023-02-05T11:40:27.257Z,104.32
2023-02-05T11:43:04.843Z,113.55
2023-02-05T11:45:33.864Z,115.80
2023-02-05T11:48:03.199Z,108.65
2023-02-05T11:50:32.760Z,108.28
2023-02-05T11:53:25.911Z,109.57
2023-02-05T11:55:56.464Z,109.50
2023-02-05T11:58:36.447Z,107.35
2023-02-05T12:01:19.921Z,113.90
2023-02-05T12:04:13.595Z,105.57
2023-02-05T12:06:43.429Z,105.50
2023-02-05T12:09:14.585Z,107.30
2023-02-05T12:12:04.219Z,106.35
2023-02-05T12:15:03.953Z,107.82
2023-02-05T12:17:41.373Z,105.90
2023-02-05T12:20:28.702Z,114.25
2023-02-05T12:23:23.623Z,104.35
2023-02-05T12:26:10.831Z,108.05
2023-02-05T12:28:50.987Z,102.32
2023-02-05T12:31:40.401Z,107.28
2023-02-05T12:34:29.312Z,105.10
2023-02-05T12:37:14.088Z,105.63
2023-02-05T12:39:46.752Z,102.13
2023-02-05T12:42:36.468Z,106.88
2023-02-05T12:45:03.075Z,103.53
2023-02-05T12:47:47.631Z,108.20
2023-02-05T12:50:43.167Z,106.43
2023-02-05T12:53:21.586Z,108.05
2023-02-05T12:56:22.027Z,103.72
2023-02-05T12:58:54.684Z,107.20
2023-02-05T13:01:42.085Z,109.82
2023-02-05T13:04:23.034Z,104.43
2023-02-05T13:06:50.848Z,102.55
2023-02-05T13:09:29.068Z,104.38
2023-02-05T13:12:06.449Z,113.43
2023-02-05T13:14:57.026Z,101.32
2023-02-05T13:17:27.140Z,104.68
2023-02-05T13:20:05.455Z,103.75
2023-02-05T13:22:53.244Z,107.78
2023-02-05T13:25:48.517Z,101.47
2023-02-05T13:28:40.625Z,103.13
2023-02-05T13:31:24.048Z,104.20
2023-02-05T13:33:52.657Z,106.70
2023-02-05T13:36:38.480Z,106.72
2023-02-05T13:39:34.242Z,108.90
2023-02-05T13:42:39.032Z,103.35
2023-02-05T13:45:14.639Z,102.50
2023-02-05T13:48:13.395Z,103.03
2023-02-05T13:51:17.390Z,103.22
2023-02-05T13:54:21.697Z,101.57
2023-02-05T13:57:00.528Z,103.30
2023-02-05T13:59:37.670Z,105.32
2023-02-05T14:02:24.654Z,101.72
2023-02-05T14:04:54.715Z,98.88
2023-02-05T14:07:43.095Z,103.80
2023-02-05T14:10:23.828Z,103.78
2023-02-05T14:12:50.599Z,102.82
2023-02-05T14:15:17.337Z,103.88
2023-02-05T14:17:43.991Z,102.97
2023-02-05T14:20:33.398Z,105.15
2023-02-05T14:23:02.425Z,103.38
2023-02-05T14:25:46.085Z,106.75
2023-02-05T14:28:15.801Z,101.80
2023-02-05T14:30:58.554Z,102.90
2023-02-05T14:33:35.848Z,100.95
2023-02-05T14:36:24.271Z,103.47
2023-02-05T14:38:52.319Z,107.75
2023-02-05T14:41:25.683Z,105.05
2023-02-05T14:44:03.391Z,102.70
2023-02-05T14:46:39.736Z,104.30
2023-02-05T14:49:20.083Z,105.10
2023-02-05T14:51:59.189Z,102.90
2023-02-05T14:54:31.711Z,101.35
2023-02-05T14:57:29.017Z,100.45
2023-02-05T15:00:06.893Z,99.13
2023-02-05T15:03:10.159Z,103.90
2023-02-05T15:05:48.806Z,101.80
2023-02-05T15:08:34.181Z,100.53
2023-02-05T15:11:03.779Z,105.82
2023-02-05T15:13:30.983Z,102.75
2023-02-05T15:16:13.010Z,107.75
2023-02-05T15:18:50.744Z,104.30
2023-02-05T15:21:43.148Z,100.00
2023-02-05T15:24:20.525Z,101.28
2023-02-05T15:26:53.282Z,101.15
2023-02-05T15:29:27.551Z,99.18
2023-02-05T15:31:58.532Z,99.78
2023-02-05T15:34:47.938Z,99.55
2023-02-05T15:37:23.218Z,102.97
2023-02-05T15:40:20.152Z,101.65
2023-02-05T15:42:55.884Z,100.05
2023-02-05T15:45:30.615Z,101.03
2023-02-05T15:48:10.896Z,99.50
2023-02-05T15:50:42.848Z,98.50
2023-02-05T15:53:21.714Z,100.78
2023-02-05T15:55:51.340Z,100.85
2023-02-05T15:58:24.193Z,102.13
2023-02-05T16:00:53.335Z,97.70
2023-02-05T16:03:32.507Z,101.72
2023-02-05T16:05:59.903Z,100.18
2023-02-05T16:08:29.922Z,100.95
2023-02-05T16:11:01.686Z,101.45
2023-02-05T16:13:29.015Z,107.38
2023-02-05T16:16:17.193Z,101.75
2023-02-05T16:18:58.774Z,100.72
2023-02-05T16:21:32.271Z,108.57
2023-02-05T16:24:06.043Z,99.95
2023-02-05T16:27:05.219Z,100.78
2023-02-05T16:29:55.341Z,107.10
2023-02-05T16:32:38.270Z,109.63
2023-02-05T16:35:07.665Z,109.50
2023-02-05T16:37:35.837Z,106.10
2023-02-05T16:40:06.587Z,108.15
2023-02-05T16:42:42.970Z,104.80
2023-02-05T16:45:20.407Z,106.60
2023-02-05T16:48:20.196Z,101.13
2023-02-05T16:50:46.995Z,100.65
2023-02-05T16:53:26.794Z,100.55
2023-02-05T16:56:18.448Z,103.40
2023-02-05T16:58:49.759Z,103.95
2023-02-05T17:01:27.751Z,102.57
2023-02-05T17:03:55.535Z,106.22
2023-02-05T17:06:22.908Z,102.45
2023-02-05T17:08:55.490Z,110.90
2023-02-05T17:11:41.292Z,101.60
2023-02-05T17:14:32.589Z,105.73
2023-02-05T17:17:00.646Z,103.00
2023-02-05T17:19:32.328Z,106.63
2023-02-05T17:22:14.322Z,100.55
2023-02-05T17:24:46.091Z,104.47
2023-02-05T17:27:41.266Z,100.20
2023-02-05T17:30:15.641Z,104.93
2023-02-05T17:32:42.317Z,105.38
2023-02-05T17:35:14.182Z,103.25
2023-02-05T17:37:40.808Z,106.47
2023-02-05T17:40:07.968Z,102.35
2023-02-05T17:42:34.698Z,102.25
2023-02-05T17:45:01.407Z,106.22
2023-02-05T17:47:28.011Z,103.05
2023-02-05T17:49:54.884Z,106.80
2023-02-05T17:52:21.542Z,103.88
2023-02-05T17:54:48.138Z,111.72
2023-02-05T17:57:17.990Z,103.53
2023-02-05T17:59:44.963Z,113.30
2023-02-05T18:02:13.224Z,104.28
2023-02-05T18:04:41.129Z,102.03
2023-02-05T18:07:29.580Z,103.93
2023-02-05T18:09:56.562Z,101.90
2023-02-05T18:12:23.261Z,102.78
2023-02-05T18:14:50.578Z,101.72
2023-02-05T18:17:17.406Z,106.53
2023-02-05T18:19:44.148Z,103.82
2023-02-05T18:22:11.093Z,103.35
2023-02-05T18:24:39.160Z,105.15
2023-02-05T18:27:09.288Z,103.85
2023-02-05T18:29:36.749Z,109.03
2023-02-05T18:32:04.187Z,102.93
2023-02-05T18:34:30.860Z,102.72
2023-02-05T18:36:57.601Z,103.40
2023-02-05T18:39:28.417Z,102.72
2023-02-05T18:41:58.280Z,101.15
2023-02-05T18:44:25.571Z,104.47
2023-02-05T18:46:52.742Z,103.75
2023-02-05T18:49:19.469Z,98.78
2023-02-05T18:51:46.404Z,102.03
2023-02-05T18:54:13.046Z,106.47
2023-02-05T18:56:39.769Z,105.25
2023-02-05T18:59:08.290Z,104.28
2023-02-05T19:01:38.120Z,101.65
2023-02-05T19:04:10.540Z,100.15
2023-02-05T19:06:39.750Z,102.88
2023-02-05T19:09:06.377Z,102.05
2023-02-05T19:11:33.987Z,101.47
2023-02-05T19:14:03.588Z,103.15
2023-02-05T19:16:32.341Z,102.75
2023-02-05T19:18:59.839Z,99.90
2023-02-05T19:21:29.276Z,104.07
2023-02-05T19:23:57.402Z,102.93
2023-02-05T19:26:26.727Z,105.85
2023-02-05T19:28:58.791Z,105.10
2023-02-05T19:31:28.041Z,102.30
2023-02-05T19:33:56.132Z,110.35
2023-02-05T19:36:23.756Z,113.97
2023-02-05T19:38:50.593Z,105.68
2023-02-05T19:41:19.872Z,104.78
2023-02-05T19:43:51.552Z,103.72
2023-02-05T19:46:20.428Z,110.57
2023-02-05T19:48:47.752Z,107.93
2023-02-05T19:51:15.582Z,103.22
2023-02-05T19:53:44.017Z,107.90
2023-02-05T19:56:13.645Z,104.03
2023-02-05T19:58:43.200Z,104.45
2023-02-05T20:01:20.511Z,103.35
2023-02-05T20:03:47.314Z,102.57
2023-02-05T20:06:16.607Z,102.97
2023-02-05T20:08:44.666Z,104.57
2023-02-05T20:11:11.500Z,102.05
2023-02-05T20:13:39.507Z,104.70
2023-02-05T20:16:10.577Z,103.53
2023-02-05T20:18:38.273Z,104.88
2023-02-05T20:21:16.208Z,102.40
2023-02-05T20:23:42.852Z,109.15
2023-02-05T20:26:10.391Z,102.22
2023-02-05T20:29:00.016Z,102.78
2023-02-05T20:31:34.992Z,103.07
2023-02-05T20:34:03.107Z,107.28
2023-02-05T20:36:31.094Z,109.50
2023-02-05T20:38:59.510Z,102.82
2023-02-05T20:41:26.494Z,105.30
2023-02-05T20:43:53.707Z,106.97
2023-02-05T20:46:20.612Z,104.20
2023-02-05T20:48:48.442Z,103.68
2023-02-05T20:51:17.224Z,101.38
2023-02-05T20:53:44.277Z,103.43
2023-02-05T20:56:13.773Z,106.75
2023-02-05T20:58:40.918Z,104.35
2023-02-05T21:01:10.170Z,106.20
2023-02-05T21:03:38.533Z,103.93
2023-02-05T21:06:05.532Z,106.13
2023-02-05T21:08:32.387Z,106.03
2023-02-05T21:10:59.035Z,108.38
2023-02-05T21:13:25.662Z,102.60
2023-02-05T21:15:57.910Z,102.63
2023-02-05T21:18:26.382Z,108.28
2023-02-05T21:20:53.894Z,105.70
2023-02-05T21:23:21.148Z,104.97
2023-02-05T21:25:48.114Z,103.68
2023-02-05T21:28:15.389Z,106.57
2023-02-05T21:30:43.268Z,104.93
2023-02-05T21:33:09.962Z,102.10
2023-02-05T21:35:39.580Z,105.85
2023-02-05T21:38:06.196Z,106.68
2023-02-05T21:40:33.492Z,104.22
2023-02-05T21:43:00.346Z,103.40
2023-02-05T21:45:26.989Z,102.55
2023-02-05T21:47:53.643Z,103.32
2023-02-05T21:50:20.588Z,99.15
2023-02-05T21:52:47.268Z,100.93
2023-02-05T21:55:13.874Z,105.72
2023-02-05T21:57:40.498Z,106.10
2023-02-05T22:00:07.385Z,101.60
2023-02-05T22:02:33.990Z,103.05
2023-02-05T22:05:00.639Z,101.80
2023-02-05T22:07:27.264Z,101.97
2023-02-05T22:09:53.888Z,101.53
2023-02-05T22:12:20.539Z,103.40
2023-02-05T22:14:48.236Z,103.60
2023-02-05T22:17:14.852Z,102.40
2023-02-05T22:19:41.498Z,101.47
2023-02-05T22:22:08.155Z,100.65
2023-02-05T22:24:34.855Z,101.85
2023-02-05T22:27:01.643Z,102.53
2023-02-05T22:29:28.286Z,100.75
2023-02-05T22:31:55.029Z,101.10
2023-02-05T22:34:22.380Z,101.28
2023-02-05T22:36:49.063Z,101.03
2023-02-05T22:39:15.737Z,103.85
2023-02-05T22:41:43.441Z,102.10
2023-02-05T22:44:11.586Z,100.95
2023-02-05T22:46:43.546Z,101.03
2023-02-05T22:49:15.149Z,100.95
2023-02-05T22:51:42.375Z,102.32
2023-02-05T22:54:11.744Z,101.43
2023-02-05T22:56:38.516Z,102.40
2023-02-05T22:59:05.670Z,100.05
2023-02-05T23:01:34.683Z,101.47
2023-02-05T23:04:03.384Z,98.90
2023-02-05T23:06:32.719Z,109.28
2023-02-05T23:09:15.099Z,105.05
2023-02-05T23:11:42.971Z,102.95
2023-02-05T23:14:10.785Z,101.00
2023-02-05T23:16:41.305Z,102.75
2023-02-05T23:19:11.224Z,99.60
2023-02-05T23:21:39.091Z,101.80
2023-02-05T23:24:06.671Z,102.43
2023-02-05T23:26:38.571Z,103.03
2023-02-05T23:29:05.845Z,100.80
2023-02-05T23:31:33.389Z,102.78
2023-02-05T23:34:00.117Z,103.97
2023-02-05T23:36:26.724Z,100.68
2023-02-05T23:38:53.357Z,100.82
2023-02-05T23:41:35.456Z,102.65
2023-02-05T23:44:03.754Z,104.43
2023-02-05T23:46:30.414Z,100.55
2023-02-05T23:48:57.500Z,101.82
2023-02-05T23:51:24.138Z,106.30
2023-02-05T23:53:50.912Z,106.85
2023-02-05T23:56:17.601Z,105.45
2023-02-05T23:58:44.271Z,105.03
